createdAt,value
2022-11-29T00:01:41.218Z,2.77
2022-11-29T00:04:08.578Z,2.86
2022-11-29T00:06:36.057Z,2.92
2022-11-29T00:09:07.096Z,3.01
2022-11-29T00:11:56.254Z,2.95
2022-11-29T00:14:24.521Z,2.90
2022-11-29T00:16:54.591Z,2.85
2022-11-29T00:19:21.938Z,2.81
2022-11-29T00:21:49.093Z,2.81
2022-11-29T00:24:16.615Z,2.86
2022-11-29T00:26:43.780Z,2.90
2022-11-29T00:29:13.095Z,2.88
2022-11-29T00:31:41.988Z,2.91
2022-11-29T00:34:11.151Z,2.85
2022-11-29T00:36:38.538Z,2.93
2022-11-29T00:39:06.702Z,2.92
2022-11-29T00:41:34.024Z,2.92
2022-11-29T00:44:01.252Z,2.88
2022-11-29T00:46:28.413Z,2.84
2022-11-29T00:48:55.465Z,2.83
2022-11-29T00:51:22.539Z,2.86
2022-11-29T00:53:49.631Z,2.85
2022-11-29T00:56:23.861Z,2.81
2022-11-29T00:58:50.918Z,2.71
2022-11-29T01:01:18.557Z,2.61
2022-11-29T01:03:45.670Z,2.74
2022-11-29T01:06:15.834Z,2.74
2022-11-29T01:08:42.957Z,2.67
2022-11-29T01:11:22.303Z,2.74
2022-11-29T01:13:51.211Z,2.74
2022-11-29T01:16:18.619Z,2.74
2022-11-29T01:18:45.744Z,2.75
2022-11-29T01:21:18.368Z,2.75
2022-11-29T01:23:47.035Z,2.73
2022-11-29T01:26:21.027Z,2.79
2022-11-29T01:28:51.198Z,2.88
2022-11-29T01:31:39.880Z,3.03
2022-11-29T01:34:08.049Z,3.06
2022-11-29T01:36:35.450Z,3.03
2022-11-29T01:39:06.003Z,3.00
2022-11-29T01:41:36.670Z,3.01
2022-11-29T01:44:12.872Z,2.96
2022-11-29T01:46:43.022Z,2.86
2022-11-29T01:49:15.611Z,2.91
2022-11-29T01:51:48.221Z,2.99
2022-11-29T01:54:15.246Z,2.90
2022-11-29T01:56:45.274Z,2.84
2022-11-29T01:59:15.996Z,2.81
2022-11-29T02:01:43.114Z,2.77
2022-11-29T02:04:13.582Z,2.73
2022-11-29T02:06:42.672Z,2.75
2022-11-29T02:09:22.031Z,2.73
2022-11-29T02:12:02.856Z,2.72
2022-11-29T02:14:46.331Z,2.81
2022-11-29T02:17:55.535Z,2.72
2022-11-29T02:20:28.639Z,2.75
2022-11-29T02:23:20.371Z,2.78
2022-11-29T02:26:22.617Z,2.74
2022-11-29T02:29:31.538Z,2.70
2022-11-29T02:32:15.009Z,2.71
2022-11-29T02:35:05.463Z,2.73
2022-11-29T02:37:47.289Z,2.77
2022-11-29T02:40:28.727Z,2.56
2022-11-29T02:43:23.914Z,2.73
2022-11-29T02:46:41.596Z,2.74
2022-11-29T02:49:14.855Z,2.68
2022-11-29T02:52:02.703Z,2.72
2022-11-29T02:54:45.630Z,2.71
2022-11-29T02:57:39.144Z,2.77
2022-11-29T03:00:10.582Z,2.83
2022-11-29T03:03:00.530Z,2.88
2022-11-29T03:06:03.434Z,2.83
2022-11-29T03:08:40.705Z,2.70
2022-11-29T03:11:39.909Z,2.79
2022-11-29T03:14:17.497Z,2.78
2022-11-29T03:17:13.859Z,2.75
2022-11-29T03:20:04.112Z,2.76
2022-11-29T03:23:08.368Z,2.81
2022-11-29T03:26:10.865Z,2.87
2022-11-29T03:28:41.652Z,2.91
2022-11-29T03:31:23.695Z,2.89
2022-11-29T03:33:56.652Z,2.88
2022-11-29T03:37:04.729Z,2.89
2022-11-29T03:39:51.594Z,2.85
2022-11-29T03:42:38.110Z,2.85
2022-11-29T03:45:18.822Z,2.86
2022-11-29T03:47:51.699Z,2.79
2022-11-29T03:50:25.520Z,2.74
2022-11-29T03:53:20.829Z,2.79
2022-11-29T03:55:57.005Z,2.72
2022-11-29T03:58:39.526Z,2.70
2022-11-29T04:01:21.549Z,2.68
2022-11-29T04:03:51.370Z,2.64
2022-11-29T04:06:57.637Z,2.61
2022-11-29T04:09:55.587Z,2.61
2022-11-29T04:12:41.265Z,2.62
2022-11-29T04:15:17.298Z,2.60
2022-11-29T04:18:05.536Z,2.63
2022-11-29T04:20:50.580Z,2.67
2022-11-29T04:23:54.864Z,2.68
2022-11-29T04:26:43.465Z,2.70
2022-11-29T04:29:26.586Z,2.78
2022-11-29T04:32:08.731Z,2.76
2022-11-29T04:35:03.114Z,2.85
2022-11-29T04:38:05.501Z,2.87
2022-11-29T04:41:03.048Z,2.82
2022-11-29T04:43:51.696Z,2.85
2022-11-29T04:46:30.715Z,2.87
2022-11-29T04:49:26.967Z,2.82
2022-11-29T04:52:05.884Z,2.35
2022-11-29T04:54:57.564Z,2.80
2022-11-29T04:57:44.703Z,2.81
2022-11-29T05:00:18.651Z,2.27
2022-11-29T05:03:16.622Z,2.87
2022-11-29T05:05:55.289Z,2.86
2022-11-29T05:08:27.813Z,2.89
2022-11-29T05:11:27.061Z,2.95
2022-11-29T05:14:15.969Z,2.75
2022-11-29T05:17:08.298Z,2.78
2022-11-29T05:20:04.204Z,2.82
2022-11-29T05:22:40.610Z,2.83
2022-11-29T05:25:38.672Z,2.73
2022-11-29T05:28:37.956Z,2.72
2022-11-29T05:31:37.938Z,2.73
2022-11-29T05:34:23.280Z,2.80
2022-11-29T05:37:22.633Z,2.78
2022-11-29T05:40:00.612Z,2.72
2022-11-29T05:43:02.724Z,2.77
2022-11-29T05:45:45.505Z,2.72
2022-11-29T05:48:30.067Z,2.62
2022-11-29T05:51:09.958Z,2.70
2022-11-29T05:54:01.127Z,2.73
2022-11-29T05:57:00.408Z,2.68
2022-11-29T05:59:40.133Z,2.69
2022-11-29T06:02:23.474Z,2.72
2022-11-29T06:05:28.632Z,2.76
2022-11-29T06:07:55.772Z,2.79
2022-11-29T06:10:33.013Z,2.76
2022-11-29T06:13:18.822Z,2.67
2022-11-29T06:16:10.406Z,2.84
2022-11-29T06:18:59.522Z,2.89
2022-11-29T06:21:45.473Z,2.83
2022-11-29T06:24:38.118Z,2.85
2022-11-29T06:27:25.362Z,2.79
2022-11-29T06:30:02.009Z,2.87
2022-11-29T06:32:55.153Z,2.81
2022-11-29T06:35:25.281Z,2.81
2022-11-29T06:37:58.986Z,2.85
2022-11-29T06:40:26.853Z,2.93
2022-11-29T06:42:53.845Z,2.96
2022-11-29T06:45:22.223Z,2.93
2022-11-29T06:47:57.150Z,2.94
2022-11-29T06:51:01.861Z,2.93
2022-11-29T06:53:38.050Z,2.92
2022-11-29T06:56:18.318Z,2.95
2022-11-29T06:59:31.327Z,2.98
2022-11-29T07:02:19.676Z,3.03
2022-11-29T07:05:08.746Z,3.05
2022-11-29T07:07:36.437Z,2.94
2022-11-29T07:10:08.304Z,3.10
2022-11-29T07:12:38.910Z,3.12
2022-11-29T07:15:07.049Z,3.13
2022-11-29T07:17:45.089Z,3.04
2022-11-29T07:20:21.296Z,3.17
2022-11-29T07:22:59.618Z,3.27
2022-11-29T07:25:43.466Z,3.27
2022-11-29T07:28:20.830Z,3.31
2022-11-29T07:30:57.092Z,3.32
2022-11-29T07:33:41.063Z,3.34
2022-11-29T07:36:45.143Z,3.34
2022-11-29T07:39:12.336Z,3.32
2022-11-29T07:41:51.912Z,3.29
2022-11-29T07:44:24.590Z,3.37
2022-11-29T07:46:51.944Z,3.40
2022-11-29T07:49:22.739Z,3.43
2022-11-29T07:51:50.989Z,3.50
2022-11-29T07:54:19.275Z,3.43
2022-11-29T07:56:49.198Z,3.52
2022-11-29T07:59:19.313Z,3.45
2022-11-29T08:01:46.942Z,3.51
2022-11-29T08:04:14.825Z,3.57
2022-11-29T08:06:45.687Z,3.48
2022-11-29T08:09:13.042Z,3.58
2022-11-29T08:11:40.838Z,3.57
2022-11-29T08:14:08.046Z,3.60
2022-11-29T08:16:36.034Z,3.66
2022-11-29T08:19:04.102Z,3.68
2022-11-29T08:21:34.558Z,3.62
2022-11-29T08:24:01.955Z,3.61
2022-11-29T08:26:31.917Z,3.65
2022-11-29T08:29:02.786Z,3.60
2022-11-29T08:31:30.091Z,3.66
2022-11-29T08:33:57.973Z,3.54
2022-11-29T08:36:24.974Z,3.57
2022-11-29T08:38:59.273Z,3.62
2022-11-29T08:41:30.846Z,3.75
2022-11-29T08:43:58.601Z,3.74
2022-11-29T08:46:45.698Z,3.75
2022-11-29T08:49:13.635Z,3.73
2022-11-29T08:51:41.038Z,3.73
2022-11-29T08:54:08.247Z,3.72
2022-11-29T08:59:24.214Z,3.69
2022-11-29T09:01:51.531Z,3.69
2022-11-29T09:04:19.512Z,3.66
2022-11-29T09:06:49.636Z,3.75
2022-11-29T09:09:17.706Z,3.81
2022-11-29T09:11:49.189Z,3.81
2022-11-29T09:14:18.165Z,3.78
2022-11-29T09:16:46.127Z,3.83
2022-11-29T09:19:17.046Z,3.82
2022-11-29T09:21:44.768Z,3.73
2022-11-29T09:24:13.355Z,3.75
2022-11-29T09:26:42.680Z,3.70
2022-11-29T09:29:11.702Z,3.75
2022-11-29T09:31:42.907Z,3.83
2022-11-29T09:34:12.983Z,3.82
2022-11-29T09:36:40.311Z,3.80
2022-11-29T09:39:07.546Z,3.87
2022-11-29T09:41:51.231Z,3.94
2022-11-29T09:44:48.021Z,3.99
2022-11-29T09:47:32.393Z,3.96
2022-11-29T09:50:22.702Z,3.86
2022-11-29T09:53:20.196Z,3.84
2022-11-29T09:55:59.915Z,3.94
2022-11-29T09:58:44.175Z,3.89
2022-11-29T10:01:19.297Z,3.89
2022-11-29T10:03:52.633Z,3.92
2022-11-29T10:06:36.780Z,3.90
2022-11-29T10:09:34.042Z,3.88
2022-11-29T10:12:19.908Z,3.83
2022-11-29T10:14:58.153Z,3.84
2022-11-29T10:17:46.713Z,3.79
2022-11-29T10:20:20.344Z,3.70
2022-11-29T10:22:56.382Z,3.84
2022-11-29T10:25:50.565Z,3.85
2022-11-29T10:28:24.688Z,3.82
2022-11-29T10:31:19.189Z,3.87
2022-11-29T10:33:46.902Z,3.91
2022-11-29T10:36:42.008Z,3.91
2022-11-29T10:39:40.369Z,3.99
2022-11-29T10:42:35.361Z,3.85
2022-11-29T10:45:04.384Z,3.88
2022-11-29T10:47:32.337Z,3.86
2022-11-29T10:50:03.077Z,3.94
2022-11-29T10:52:30.352Z,3.85
2022-11-29T10:55:00.026Z,3.90
2022-11-29T10:57:27.541Z,3.96
2022-11-29T11:00:14.478Z,3.91
2022-11-29T11:02:42.531Z,4.00
2022-11-29T11:05:19.663Z,4.05
2022-11-29T11:08:00.545Z,3.96
2022-11-29T11:10:37.816Z,3.77
2022-11-29T11:13:08.180Z,4.01
2022-11-29T11:15:35.299Z,3.98
2022-11-29T11:18:05.190Z,3.99
2022-11-29T11:20:40.362Z,3.95
2022-11-29T11:23:42.389Z,3.92
2022-11-29T11:26:14.973Z,4.04
2022-11-29T11:28:51.128Z,4.08
2022-11-29T11:31:29.111Z,4.07
2022-11-29T11:33:56.299Z,3.96
2022-11-29T11:36:27.361Z,4.10
2022-11-29T11:39:10.422Z,4.13
2022-11-29T11:42:00.558Z,4.10
2022-11-29T11:44:53.823Z,4.18
2022-11-29T11:47:29.894Z,4.15
2022-11-29T11:50:00.820Z,4.12
2022-11-29T11:52:42.071Z,4.03
2022-11-29T11:55:21.219Z,4.11
2022-11-29T11:58:09.721Z,4.13
2022-11-29T12:03:32.054Z,4.10
2022-11-29T12:06:39.945Z,4.02
2022-11-29T12:09:39.748Z,4.01
2022-11-29T12:12:13.103Z,4.06
2022-11-29T12:15:02.234Z,4.00
2022-11-29T12:17:35.404Z,4.02
2022-11-29T12:20:22.201Z,4.08
2022-11-29T12:23:23.784Z,3.96
2022-11-29T12:25:58.663Z,4.05
2022-11-29T12:28:33.870Z,4.00
2022-11-29T12:31:28.040Z,4.04
2022-11-29T12:33:59.078Z,4.07
2022-11-29T12:36:54.060Z,4.02
2022-11-29T12:39:39.113Z,4.05
2022-11-29T12:42:25.259Z,4.09
2022-11-29T12:44:55.206Z,4.05
2022-11-29T12:47:53.702Z,4.08
2022-11-29T12:50:49.925Z,4.07
2022-11-29T12:53:27.225Z,4.05
2022-11-29T12:56:26.069Z,4.04
2022-11-29T12:59:08.463Z,4.03
2022-11-29T13:02:04.526Z,4.06
2022-11-29T13:04:44.193Z,3.99
2022-11-29T13:07:26.775Z,3.99
2022-11-29T13:09:59.993Z,3.95
2022-11-29T13:12:51.001Z,4.03
2022-11-29T13:15:35.281Z,4.04
2022-11-29T13:18:29.794Z,4.07
2022-11-29T13:21:04.642Z,3.94
2022-11-29T13:26:39.750Z,3.97
2022-11-29T13:29:08.749Z,4.06
2022-11-29T13:31:39.030Z,4.06
2022-11-29T13:34:14.050Z,3.97
2022-11-29T13:37:00.121Z,4.02
2022-11-29T13:39:39.824Z,4.04
2022-11-29T13:42:28.327Z,4.09
2022-11-29T13:45:07.609Z,4.05
2022-11-29T13:48:10.729Z,3.99
2022-11-29T13:50:45.980Z,3.97
2022-11-29T13:53:30.945Z,3.94
2022-11-29T13:56:02.129Z,4.01
2022-11-29T13:58:29.170Z,3.98
2022-11-29T14:01:10.123Z,3.99
2022-11-29T14:03:38.952Z,3.98
2022-11-29T14:06:13.622Z,3.96
2022-11-29T14:09:17.909Z,3.96
2022-11-29T14:11:48.953Z,3.97
2022-11-29T14:14:15.796Z,3.98
2022-11-29T14:16:43.145Z,3.97
2022-11-29T14:19:10.420Z,3.90
2022-11-29T14:21:59.052Z,3.84
2022-11-29T14:24:32.448Z,3.83
2022-11-29T14:27:12.611Z,3.87
2022-11-29T14:29:51.032Z,3.86
2022-11-29T14:32:56.673Z,3.90
2022-11-29T14:36:01.746Z,3.83
2022-11-29T14:38:43.239Z,3.85
2022-11-29T14:41:38.181Z,3.86
2022-11-29T14:44:26.149Z,3.80
2022-11-29T14:47:20.352Z,3.83
2022-11-29T14:49:47.431Z,3.87
2022-11-29T14:52:14.497Z,3.89
2022-11-29T14:55:04.036Z,3.84
2022-11-29T14:57:50.191Z,3.81
2022-11-29T15:00:21.747Z,3.76
2022-11-29T15:02:50.900Z,3.78
2022-11-29T15:05:34.639Z,3.81
2022-11-29T15:08:19.392Z,3.81
2022-11-29T15:11:03.308Z,3.83
2022-11-29T15:13:33.510Z,3.89
2022-11-29T15:16:34.110Z,3.92
2022-11-29T15:19:03.701Z,3.90
2022-11-29T15:21:51.070Z,3.89
2022-11-29T15:24:19.847Z,3.91
2022-11-29T15:27:03.205Z,3.91
2022-11-29T15:29:49.073Z,3.92
2022-11-29T15:32:30.611Z,3.96
2022-11-29T15:34:57.800Z,3.95
2022-11-29T15:37:24.757Z,3.92
2022-11-29T15:40:31.420Z,3.88
2022-11-29T15:43:25.921Z,3.94
2022-11-29T15:45:55.599Z,3.88
2022-11-29T15:48:29.017Z,3.85
2022-11-29T15:51:14.645Z,3.79
2022-11-29T15:53:48.647Z,3.81
2022-11-29T15:56:28.045Z,3.82
2022-11-29T15:59:02.989Z,3.76
2022-11-29T16:01:30.487Z,3.88
2022-11-29T16:03:58.528Z,3.86
2022-11-29T16:06:34.409Z,3.34
2022-11-29T16:09:10.097Z,3.85
2022-11-29T16:11:38.339Z,3.88
2022-11-29T16:14:29.457Z,3.76
2022-11-29T16:17:00.805Z,3.72
2022-11-29T16:19:34.997Z,3.82
2022-11-29T16:22:32.286Z,3.82
2022-11-29T16:25:07.113Z,3.84
2022-11-29T16:27:36.232Z,3.84
2022-11-29T16:30:03.710Z,3.78
2022-11-29T16:32:34.570Z,3.78
2022-11-29T16:35:12.607Z,3.82
2022-11-29T16:37:43.024Z,3.86
2022-11-29T16:40:28.217Z,3.72
2022-11-29T16:43:04.630Z,3.79
2022-11-29T16:45:42.593Z,3.75
2022-11-29T16:48:26.951Z,3.77
2022-11-29T16:51:16.414Z,3.76
2022-11-29T16:53:47.737Z,3.80
2022-11-29T16:56:17.748Z,3.81
2022-11-29T16:59:17.017Z,3.84
2022-11-29T17:01:39.236Z,3.86
2022-11-29T17:04:06.132Z,3.80
2022-11-29T17:06:33.266Z,3.80
2022-11-29T17:09:00.326Z,3.68
2022-11-29T17:11:27.587Z,3.82
2022-11-29T17:13:54.559Z,3.73
2022-11-29T17:16:23.742Z,3.81
2022-11-29T17:18:53.023Z,3.83
2022-11-29T17:21:27.899Z,3.82
2022-11-29T17:23:54.981Z,3.73
2022-11-29T17:26:25.840Z,3.77
2022-11-29T17:28:53.586Z,3.78
2022-11-29T17:31:29.910Z,3.71
2022-11-29T17:33:59.758Z,3.76
2022-11-29T17:36:27.066Z,3.76
2022-11-29T17:38:53.955Z,3.73
2022-11-29T17:41:25.349Z,3.68
2022-11-29T17:43:53.809Z,3.32
2022-11-29T17:46:42.970Z,3.62
2022-11-29T17:49:11.627Z,3.54
2022-11-29T17:51:51.756Z,3.56
2022-11-29T17:54:19.770Z,3.53
2022-11-29T17:56:46.705Z,3.58
2022-11-29T17:59:13.587Z,3.46
2022-11-29T18:01:41.644Z,3.59
2022-11-29T18:04:09.726Z,3.56
2022-11-29T18:06:39.734Z,3.66
2022-11-29T18:09:09.103Z,3.69
2022-11-29T18:11:47.701Z,3.70
2022-11-29T18:14:28.397Z,3.77
2022-11-29T18:16:55.524Z,3.70
2022-11-29T18:19:23.699Z,3.75
2022-11-29T18:21:51.314Z,3.79
2022-11-29T18:24:19.266Z,3.76
2022-11-29T18:26:46.631Z,3.82
2022-11-29T18:29:13.679Z,3.82
2022-11-29T18:31:43.996Z,3.84
2022-11-29T18:34:13.243Z,3.77
2022-11-29T18:36:43.247Z,3.75
2022-11-29T18:39:18.980Z,3.81
2022-11-29T18:41:48.794Z,3.84
2022-11-29T18:44:17.667Z,3.85
2022-11-29T18:46:45.712Z,3.85
2022-11-29T18:49:15.343Z,3.84
2022-11-29T18:51:45.405Z,3.80
2022-11-29T18:54:14.619Z,3.75
2022-11-29T18:56:42.975Z,3.86
2022-11-29T18:59:17.165Z,3.87
2022-11-29T19:01:46.508Z,3.89
2022-11-29T19:04:16.608Z,3.91
2022-11-29T19:06:44.439Z,3.97
2022-11-29T19:09:15.657Z,3.94
2022-11-29T19:11:42.833Z,3.95
2022-11-29T19:14:11.817Z,3.91
2022-11-29T19:16:44.667Z,3.91
2022-11-29T19:19:11.961Z,3.92
2022-11-29T19:21:40.195Z,3.91
2022-11-29T19:24:14.090Z,3.97
2022-11-29T19:26:44.788Z,3.96
2022-11-29T19:29:19.918Z,3.89
2022-11-29T19:31:50.579Z,3.87
2022-11-29T19:34:17.615Z,3.86
2022-11-29T19:36:48.081Z,3.84
2022-11-29T19:39:17.511Z,3.87
2022-11-29T19:41:47.150Z,3.84
2022-11-29T19:44:14.431Z,3.83
2022-11-29T19:46:48.580Z,3.81
2022-11-29T19:49:15.818Z,3.88
2022-11-29T19:51:43.498Z,3.86
2022-11-29T19:54:14.422Z,3.91
2022-11-29T19:56:42.372Z,3.90
2022-11-29T19:59:10.405Z,3.94
2022-11-29T20:01:42.640Z,3.93
2022-11-29T20:04:11.754Z,3.88
2022-11-29T20:06:39.311Z,3.92
2022-11-29T20:09:06.692Z,3.90
2022-11-29T20:11:35.030Z,3.90
2022-11-29T20:14:04.939Z,3.90
2022-11-29T20:16:33.883Z,3.90
2022-11-29T20:19:02.068Z,3.89
2022-11-29T20:21:32.305Z,3.79
2022-11-29T20:24:11.897Z,3.85
2022-11-29T20:26:43.188Z,3.84
2022-11-29T20:29:10.741Z,3.90
2022-11-29T20:31:40.315Z,3.90
2022-11-29T20:34:13.112Z,3.87
2022-11-29T20:37:21.143Z,3.91
2022-11-29T20:40:12.134Z,3.86
2022-11-29T20:42:54.167Z,3.85
2022-11-29T20:45:21.494Z,3.77
2022-11-29T20:47:58.758Z,3.83
2022-11-29T20:50:27.841Z,3.82
2022-11-29T20:53:22.527Z,3.97
2022-11-29T20:55:49.693Z,3.94
2022-11-29T20:58:16.908Z,3.91
2022-11-29T21:00:44.915Z,4.00
2022-11-29T21:03:19.341Z,3.89
2022-11-29T21:05:47.330Z,4.02
2022-11-29T21:08:15.461Z,3.88
2022-11-29T21:10:42.735Z,3.85
2022-11-29T21:13:11.805Z,3.85
2022-11-29T21:15:40.081Z,3.86
2022-11-29T21:18:07.857Z,3.86
2022-11-29T21:20:35.013Z,3.88
2022-11-29T21:23:05.358Z,3.91
2022-11-29T21:26:01.753Z,3.93
2022-11-29T21:28:34.452Z,3.86
2022-11-29T21:31:01.718Z,3.86
2022-11-29T21:33:28.800Z,3.86
2022-11-29T21:35:59.635Z,3.85
2022-11-29T21:38:27.750Z,3.80
2022-11-29T21:40:54.632Z,3.80
2022-11-29T21:43:28.761Z,3.81
2022-11-29T21:46:08.476Z,3.81
2022-11-29T21:48:35.368Z,3.80
2022-11-29T21:51:04.963Z,3.74
2022-11-29T21:53:32.093Z,3.82
2022-11-29T21:56:03.026Z,3.71
2022-11-29T21:58:31.712Z,3.76
2022-11-29T22:01:15.466Z,3.78
2022-11-29T22:03:43.342Z,3.78
2022-11-29T22:06:18.275Z,3.82
2022-11-29T22:08:45.187Z,3.81
2022-11-29T22:11:14.628Z,3.87
2022-11-29T22:14:01.703Z,3.83
2022-11-29T22:16:31.889Z,3.74
2022-11-29T22:18:58.911Z,3.71
2022-11-29T22:21:26.276Z,3.66
2022-11-29T22:23:53.252Z,3.75
2022-11-29T22:26:21.716Z,3.75
2022-11-29T22:28:48.715Z,3.72
2022-11-29T22:31:15.752Z,3.65
2022-11-29T22:33:42.920Z,3.69
2022-11-29T22:36:13.019Z,3.54
2022-11-29T22:38:40.705Z,3.58
2022-11-29T22:41:13.460Z,3.61
2022-11-29T22:43:41.363Z,3.63
2022-11-29T22:46:15.637Z,3.70
2022-11-29T22:48:45.537Z,3.57
2022-11-29T22:51:15.530Z,3.60
2022-11-29T22:53:47.888Z,3.64
2022-11-29T22:56:15.150Z,3.62
2022-11-29T22:58:42.217Z,3.68
2022-11-29T23:01:11.247Z,3.72
2022-11-29T23:03:40.452Z,3.68
2022-11-29T23:06:10.466Z,3.70
2022-11-29T23:08:39.573Z,3.79
2022-11-29T23:11:13.027Z,3.78
2022-11-29T23:13:44.677Z,3.79
2022-11-29T23:16:17.527Z,3.76
2022-11-29T23:18:48.548Z,3.70
2022-11-29T23:21:32.338Z,3.75
2022-11-29T23:24:01.258Z,3.84
2022-11-29T23:26:39.221Z,3.90
2022-11-29T23:29:08.609Z,3.93
2022-11-29T23:31:35.661Z,3.90
2022-11-29T23:34:03.697Z,3.90
2022-11-29T23:36:30.824Z,3.92
2022-11-29T23:38:57.893Z,3.86
2022-11-29T23:41:24.868Z,3.89
2022-11-29T23:43:51.715Z,3.89
2022-11-29T23:46:21.178Z,3.91
2022-11-29T23:48:48.568Z,3.95
2022-11-29T23:51:16.569Z,3.90
2022-11-29T23:53:43.888Z,3.85
2022-11-29T23:56:16.516Z,3.87
2022-11-29T23:58:47.422Z,3.90
